sensor_id;sensor_type;location;lat;lon;timestamp;pressure;altitude;pressure_sealevel;temperature;humidity
84043;BME280;74129;52.540;13.416;2023-12-20T00:00:00;100265.02;;;7.23;79.28
84043;BME280;74129;52.540;13.416;2023-12-20T00:02:27;100260.05;;;7.23;79.04
84043;BME280;74129;52.540;13.416;2023-12-20T00:04:53;100260.28;;;7.24;79.09
84043;BME280;74129;52.540;13.416;2023-12-20T00:07:20;100261.63;;;7.22;79.33
84043;BME280;74129;52.540;13.416;2023-12-20T00:09:46;100259.27;;;7.22;79.24
84043;BME280;74129;52.540;13.416;2023-12-20T00:12:13;100258.01;;;7.23;79.20
84043;BME280;74129;52.540;13.416;2023-12-20T00:14:39;100256.77;;;7.23;79.20
84043;BME280;74129;52.540;13.416;2023-12-20T00:17:06;100250.80;;;7.21;79.29
84043;BME280;74129;52.540;13.416;2023-12-20T00:19:32;100246.70;;;7.19;79.27
84043;BME280;74129;52.540;13.416;2023-12-20T00:21:58;100240.69;;;7.17;79.33
84043;BME280;74129;52.540;13.416;2023-12-20T00:24:26;100241.14;;;7.19;79.37
84043;BME280;74129;52.540;13.416;2023-12-20T00:26:52;100239.34;;;7.17;79.35
84043;BME280;74129;52.540;13.416;2023-12-20T00:29:18;100239.65;;;7.16;79.38
84043;BME280;74129;52.540;13.416;2023-12-20T00:31:45;100229.11;;;7.16;79.34
84043;BME280;74129;52.540;13.416;2023-12-20T00:34:11;100233.34;;;7.17;79.37
84043;BME280;74129;52.540;13.416;2023-12-20T00:36:38;100230.67;;;7.18;79.13
84043;BME280;74129;52.540;13.416;2023-12-20T00:39:04;100228.81;;;7.17;79.23
84043;BME280;74129;52.540;13.416;2023-12-20T00:41:30;100228.65;;;7.18;79.28
84043;BME280;74129;52.540;13.416;2023-12-20T00:43:57;100230.92;;;7.16;79.56
84043;BME280;74129;52.540;13.416;2023-12-20T00:46:23;100231.13;;;7.15;79.47
84043;BME280;74129;52.540;13.416;2023-12-20T00:48:49;100231.39;;;7.15;79.37
84043;BME280;74129;52.540;13.416;2023-12-20T00:51:16;100229.02;;;7.17;79.53
84043;BME280;74129;52.540;13.416;2023-12-20T00:53:42;100224.95;;;7.17;79.49
84043;BME280;74129;52.540;13.416;2023-12-20T00:56:09;100225.11;;;7.17;79.53
84043;BME280;74129;52.540;13.416;2023-12-20T00:58:36;100225.35;;;7.19;79.26
84043;BME280;74129;52.540;13.416;2023-12-20T01:01:02;100224.02;;;7.21;79.45
84043;BME280;74129;52.540;13.416;2023-12-20T01:03:29;100230.58;;;7.24;79.38
84043;BME280;74129;52.540;13.416;2023-12-20T01:05:55;100236.34;;;7.26;79.33
84043;BME280;74129;52.540;13.416;2023-12-20T01:08:22;100233.70;;;7.24;79.12
84043;BME280;74129;52.540;13.416;2023-12-20T01:10:48;100234.96;;;7.21;79.07
84043;BME280;74129;52.540;13.416;2023-12-20T01:13:15;100233.94;;;7.17;79.21
84043;BME280;74129;52.540;13.416;2023-12-20T01:15:41;100240.21;;;7.15;79.28
84043;BME280;74129;52.540;13.416;2023-12-20T01:18:08;100241.11;;;7.11;79.42
84043;BME280;74129;52.540;13.416;2023-12-20T01:20:34;100241.41;;;7.10;79.56
84043;BME280;74129;52.540;13.416;2023-12-20T01:23:01;100238.91;;;7.08;79.53
84043;BME280;74129;52.540;13.416;2023-12-20T01:25:27;100237.02;;;7.06;79.67
84043;BME280;74129;52.540;13.416;2023-12-20T01:27:53;100230.93;;;7.04;79.73
84043;BME280;74129;52.540;13.416;2023-12-20T01:30:20;100234.38;;;7.03;79.91
84043;BME280;74129;52.540;13.416;2023-12-20T01:32:46;100232.65;;;7.02;79.80
84043;BME280;74129;52.540;13.416;2023-12-20T01:35:13;100237.52;;;7.00;79.94
84043;BME280;74129;52.540;13.416;2023-12-20T01:37:39;100235.00;;;6.98;80.01
84043;BME280;74129;52.540;13.416;2023-12-20T01:40:06;100231.09;;;6.96;80.06
84043;BME280;74129;52.540;13.416;2023-12-20T01:42:34;100236.25;;;6.94;80.06
84043;BME280;74129;52.540;13.416;2023-12-20T01:45:00;100237.39;;;6.95;80.11
84043;BME280;74129;52.540;13.416;2023-12-20T01:47:27;100232.19;;;6.94;80.07
84043;BME280;74129;52.540;13.416;2023-12-20T01:49:53;100232.98;;;6.94;80.22
84043;BME280;74129;52.540;13.416;2023-12-20T01:52:20;100234.94;;;6.93;80.39
84043;BME280;74129;52.540;13.416;2023-12-20T01:54:47;100227.67;;;6.93;80.35
84043;BME280;74129;52.540;13.416;2023-12-20T01:57:14;100225.63;;;6.92;80.15
84043;BME280;74129;52.540;13.416;2023-12-20T01:59:41;100220.30;;;6.93;80.30
84043;BME280;74129;52.540;13.416;2023-12-20T02:02:07;100217.88;;;6.96;80.20
84043;BME280;74129;52.540;13.416;2023-12-20T02:04:34;100221.83;;;6.98;80.20
84043;BME280;74129;52.540;13.416;2023-12-20T02:07:02;100224.60;;;6.97;79.79
84043;BME280;74129;52.540;13.416;2023-12-20T02:09:29;100222.23;;;6.99;79.88
84043;BME280;74129;52.540;13.416;2023-12-20T02:11:56;100218.33;;;6.99;79.76
84043;BME280;74129;52.540;13.416;2023-12-20T02:14:22;100211.48;;;6.99;79.87
84043;BME280;74129;52.540;13.416;2023-12-20T02:16:49;100206.86;;;6.98;79.54
84043;BME280;74129;52.540;13.416;2023-12-20T02:19:17;100212.54;;;6.96;79.42
84043;BME280;74129;52.540;13.416;2023-12-20T02:21:44;100213.98;;;6.92;79.21
84043;BME280;74129;52.540;13.416;2023-12-20T02:24:10;100216.30;;;6.90;79.08
84043;BME280;74129;52.540;13.416;2023-12-20T02:26:36;100206.30;;;6.87;78.99
84043;BME280;74129;52.540;13.416;2023-12-20T02:29:03;100201.07;;;6.86;78.77
84043;BME280;74129;52.540;13.416;2023-12-20T02:31:29;100207.02;;;6.83;78.82
84043;BME280;74129;52.540;13.416;2023-12-20T02:33:56;100209.55;;;6.81;78.96
84043;BME280;74129;52.540;13.416;2023-12-20T02:36:22;100210.48;;;6.79;79.11
84043;BME280;74129;52.540;13.416;2023-12-20T02:38:48;100216.54;;;6.78;79.26
84043;BME280;74129;52.540;13.416;2023-12-20T02:41:16;100214.73;;;6.77;79.49
84043;BME280;74129;52.540;13.416;2023-12-20T02:43:44;100204.98;;;6.77;79.59
84043;BME280;74129;52.540;13.416;2023-12-20T02:46:11;100203.38;;;6.77;79.53
84043;BME280;74129;52.540;13.416;2023-12-20T02:48:38;100208.95;;;6.77;79.59
84043;BME280;74129;52.540;13.416;2023-12-20T02:51:04;100205.69;;;6.80;79.74
84043;BME280;74129;52.540;13.416;2023-12-20T02:53:31;100208.34;;;6.82;79.61
84043;BME280;74129;52.540;13.416;2023-12-20T02:55:57;100210.83;;;6.84;79.81
84043;BME280;74129;52.540;13.416;2023-12-20T02:58:24;100211.36;;;6.83;79.59
84043;BME280;74129;52.540;13.416;2023-12-20T03:00:50;100210.99;;;6.83;79.64
84043;BME280;74129;52.540;13.416;2023-12-20T03:03:17;100209.35;;;6.82;79.72
84043;BME280;74129;52.540;13.416;2023-12-20T03:05:45;100205.59;;;6.81;79.52
84043;BME280;74129;52.540;13.416;2023-12-20T03:08:11;100208.98;;;6.82;79.49
84043;BME280;74129;52.540;13.416;2023-12-20T03:10:38;100212.42;;;6.80;79.56
84043;BME280;74129;52.540;13.416;2023-12-20T03:13:04;100206.94;;;6.79;79.56
84043;BME280;74129;52.540;13.416;2023-12-20T03:15:30;100215.87;;;6.79;79.43
84043;BME280;74129;52.540;13.416;2023-12-20T03:17:57;100217.05;;;6.79;79.38
84043;BME280;74129;52.540;13.416;2023-12-20T03:20:25;100218.64;;;6.78;79.20
84043;BME280;74129;52.540;13.416;2023-12-20T03:22:54;100217.42;;;6.76;79.33
84043;BME280;74129;52.540;13.416;2023-12-20T03:25:20;100215.09;;;6.71;79.30
84043;BME280;74129;52.540;13.416;2023-12-20T03:27:47;100221.40;;;6.69;79.17
84043;BME280;74129;52.540;13.416;2023-12-20T03:30:13;100220.00;;;6.68;79.22
84043;BME280;74129;52.540;13.416;2023-12-20T03:32:40;100220.29;;;6.64;79.00
84043;BME280;74129;52.540;13.416;2023-12-20T03:35:06;100216.88;;;6.62;79.13
84043;BME280;74129;52.540;13.416;2023-12-20T03:37:33;100216.28;;;6.61;79.25
84043;BME280;74129;52.540;13.416;2023-12-20T03:39:59;100217.23;;;6.61;79.08
84043;BME280;74129;52.540;13.416;2023-12-20T03:42:26;100220.78;;;6.58;79.26
84043;BME280;74129;52.540;13.416;2023-12-20T03:44:52;100224.39;;;6.55;79.15
84043;BME280;74129;52.540;13.416;2023-12-20T03:47:19;100222.48;;;6.52;79.12
84043;BME280;74129;52.540;13.416;2023-12-20T03:49:45;100206.92;;;6.50;79.16
84043;BME280;74129;52.540;13.416;2023-12-20T03:52:11;100203.80;;;6.50;79.40
84043;BME280;74129;52.540;13.416;2023-12-20T03:54:38;100203.14;;;6.53;79.16
84043;BME280;74129;52.540;13.416;2023-12-20T03:57:04;100206.37;;;6.54;79.35
84043;BME280;74129;52.540;13.416;2023-12-20T03:59:35;100205.17;;;6.56;79.19
84043;BME280;74129;52.540;13.416;2023-12-20T04:02:03;100203.95;;;6.56;79.07
84043;BME280;74129;52.540;13.416;2023-12-20T04:04:30;100205.27;;;6.58;78.77
84043;BME280;74129;52.540;13.416;2023-12-20T04:06:56;100202.70;;;6.56;78.88
84043;BME280;74129;52.540;13.416;2023-12-20T04:09:23;100196.16;;;6.53;78.94
84043;BME280;74129;52.540;13.416;2023-12-20T04:11:49;100191.72;;;6.53;78.81
84043;BME280;74129;52.540;13.416;2023-12-20T04:14:16;100186.09;;;6.53;78.75
84043;BME280;74129;52.540;13.416;2023-12-20T04:16:42;100178.25;;;6.50;78.68
84043;BME280;74129;52.540;13.416;2023-12-20T04:19:09;100179.44;;;6.50;78.58
84043;BME280;74129;52.540;13.416;2023-12-20T04:21:35;100187.06;;;6.50;78.57
84043;BME280;74129;52.540;13.416;2023-12-20T04:24:02;100180.26;;;6.46;78.09
84043;BME280;74129;52.540;13.416;2023-12-20T04:26:29;100180.92;;;6.40;78.09
84043;BME280;74129;52.540;13.416;2023-12-20T04:28:56;100182.95;;;6.39;78.09
84043;BME280;74129;52.540;13.416;2023-12-20T04:31:22;100178.66;;;6.36;78.18
84043;BME280;74129;52.540;13.416;2023-12-20T04:33:48;100174.45;;;6.33;78.20
84043;BME280;74129;52.540;13.416;2023-12-20T04:36:15;100170.63;;;6.32;78.19
84043;BME280;74129;52.540;13.416;2023-12-20T04:38:41;100173.85;;;6.30;78.00
84043;BME280;74129;52.540;13.416;2023-12-20T04:41:07;100178.96;;;6.29;78.05
84043;BME280;74129;52.540;13.416;2023-12-20T04:43:34;100186.70;;;6.29;78.11
84043;BME280;74129;52.540;13.416;2023-12-20T04:46:00;100184.38;;;6.25;77.80
84043;BME280;74129;52.540;13.416;2023-12-20T04:48:27;100184.70;;;6.22;77.80
84043;BME280;74129;52.540;13.416;2023-12-20T04:50:54;100183.61;;;6.19;77.87
84043;BME280;74129;52.540;13.416;2023-12-20T04:53:20;100183.55;;;6.18;77.73
84043;BME280;74129;52.540;13.416;2023-12-20T04:55:47;100180.02;;;6.18;77.82
84043;BME280;74129;52.540;13.416;2023-12-20T04:58:13;100173.71;;;6.21;77.72
84043;BME280;74129;52.540;13.416;2023-12-20T05:00:40;100177.17;;;6.20;77.65
84043;BME280;74129;52.540;13.416;2023-12-20T05:03:06;100183.60;;;6.19;77.51
84043;BME280;74129;52.540;13.416;2023-12-20T05:05:33;100182.24;;;6.17;77.35
84043;BME280;74129;52.540;13.416;2023-12-20T05:07:59;100186.02;;;6.16;77.17
84043;BME280;74129;52.540;13.416;2023-12-20T05:10:26;100189.34;;;6.14;77.07
84043;BME280;74129;52.540;13.416;2023-12-20T05:12:53;100190.84;;;6.12;77.42
84043;BME280;74129;52.540;13.416;2023-12-20T05:15:19;100187.42;;;6.12;77.21
84043;BME280;74129;52.540;13.416;2023-12-20T05:17:46;100186.30;;;6.11;77.13
84043;BME280;74129;52.540;13.416;2023-12-20T05:20:13;100190.81;;;6.10;77.15
84043;BME280;74129;52.540;13.416;2023-12-20T05:22:41;100193.33;;;6.11;77.13
84043;BME280;74129;52.540;13.416;2023-12-20T05:25:07;100188.56;;;6.10;77.07
84043;BME280;74129;52.540;13.416;2023-12-20T05:27:34;100193.39;;;6.08;77.06
84043;BME280;74129;52.540;13.416;2023-12-20T05:30:00;100188.94;;;6.05;76.90
84043;BME280;74129;52.540;13.416;2023-12-20T05:32:27;100191.68;;;6.01;77.04
84043;BME280;74129;52.540;13.416;2023-12-20T05:34:54;100193.36;;;5.97;76.91
84043;BME280;74129;52.540;13.416;2023-12-20T05:37:20;100186.08;;;5.93;76.90
84043;BME280;74129;52.540;13.416;2023-12-20T05:39:46;100181.92;;;5.91;76.95
84043;BME280;74129;52.540;13.416;2023-12-20T05:42:13;100175.80;;;5.89;76.94
84043;BME280;74129;52.540;13.416;2023-12-20T05:44:39;100182.91;;;5.87;76.92
84043;BME280;74129;52.540;13.416;2023-12-20T05:47:06;100186.02;;;5.83;76.80
84043;BME280;74129;52.540;13.416;2023-12-20T05:49:32;100182.14;;;5.80;76.87
84043;BME280;74129;52.540;13.416;2023-12-20T05:51:58;100175.61;;;5.78;76.93
84043;BME280;74129;52.540;13.416;2023-12-20T05:54:25;100171.75;;;5.75;76.89
84043;BME280;74129;52.540;13.416;2023-12-20T05:56:51;100170.92;;;5.73;76.87
84043;BME280;74129;52.540;13.416;2023-12-20T05:59:18;100171.38;;;5.72;76.52
84043;BME280;74129;52.540;13.416;2023-12-20T06:01:44;100175.13;;;5.72;76.63
84043;BME280;74129;52.540;13.416;2023-12-20T06:04:10;100172.28;;;5.72;76.79
84043;BME280;74129;52.540;13.416;2023-12-20T06:06:41;100176.23;;;5.72;76.66
84043;BME280;74129;52.540;13.416;2023-12-20T06:09:08;100164.75;;;5.72;76.85
84043;BME280;74129;52.540;13.416;2023-12-20T06:11:35;100156.64;;;5.69;76.81
84043;BME280;74129;52.540;13.416;2023-12-20T06:14:01;100161.06;;;5.69;76.80
84043;BME280;74129;52.540;13.416;2023-12-20T06:16:28;100160.45;;;5.68;76.87
84043;BME280;74129;52.540;13.416;2023-12-20T06:18:54;100158.52;;;5.67;76.61
84043;BME280;74129;52.540;13.416;2023-12-20T06:21:20;100156.76;;;5.65;76.48
84043;BME280;74129;52.540;13.416;2023-12-20T06:23:47;100150.91;;;5.61;76.68
84043;BME280;74129;52.540;13.416;2023-12-20T06:26:13;100151.79;;;5.60;76.70
84043;BME280;74129;52.540;13.416;2023-12-20T06:28:40;100153.36;;;5.59;76.53
84043;BME280;74129;52.540;13.416;2023-12-20T06:31:06;100158.27;;;5.58;76.61
84043;BME280;74129;52.540;13.416;2023-12-20T06:33:33;100167.92;;;5.56;76.87
84043;BME280;74129;52.540;13.416;2023-12-20T06:35:59;100166.23;;;5.54;76.75
84043;BME280;74129;52.540;13.416;2023-12-20T06:38:26;100162.06;;;5.49;76.75
84043;BME280;74129;52.540;13.416;2023-12-20T06:40:53;100163.78;;;5.52;76.76
84043;BME280;74129;52.540;13.416;2023-12-20T06:43:20;100164.59;;;5.51;76.77
84043;BME280;74129;52.540;13.416;2023-12-20T06:45:46;100165.20;;;5.51;76.87
84043;BME280;74129;52.540;13.416;2023-12-20T06:48:13;100161.19;;;5.50;76.63
84043;BME280;74129;52.540;13.416;2023-12-20T06:50:40;100154.77;;;5.50;76.90
84043;BME280;74129;52.540;13.416;2023-12-20T06:53:06;100144.77;;;5.48;76.84
84043;BME280;74129;52.540;13.416;2023-12-20T06:55:36;100149.35;;;5.49;76.83
84043;BME280;74129;52.540;13.416;2023-12-20T06:58:04;100147.88;;;5.49;77.09
84043;BME280;74129;52.540;13.416;2023-12-20T07:00:30;100145.20;;;5.49;76.91
84043;BME280;74129;52.540;13.416;2023-12-20T07:02:57;100149.59;;;5.47;76.81
84043;BME280;74129;52.540;13.416;2023-12-20T07:05:24;100143.67;;;5.48;76.97
84043;BME280;74129;52.540;13.416;2023-12-20T07:07:50;100142.14;;;5.48;76.90
84043;BME280;74129;52.540;13.416;2023-12-20T07:10:16;100140.95;;;5.48;76.85
84043;BME280;74129;52.540;13.416;2023-12-20T07:12:43;100144.00;;;5.48;76.86
84043;BME280;74129;52.540;13.416;2023-12-20T07:15:10;100145.95;;;5.47;77.17
84043;BME280;74129;52.540;13.416;2023-12-20T07:17:37;100142.27;;;5.47;76.85
84043;BME280;74129;52.540;13.416;2023-12-20T07:20:04;100139.62;;;5.47;76.83
84043;BME280;74129;52.540;13.416;2023-12-20T07:22:33;100140.54;;;5.48;76.87
84043;BME280;74129;52.540;13.416;2023-12-20T07:25:00;100139.89;;;5.50;77.02
84043;BME280;74129;52.540;13.416;2023-12-20T07:27:26;100143.24;;;5.50;76.81
84043;BME280;74129;52.540;13.416;2023-12-20T07:29:53;100143.52;;;5.51;76.73
84043;BME280;74129;52.540;13.416;2023-12-20T07:32:19;100139.17;;;5.51;76.79
84043;BME280;74129;52.540;13.416;2023-12-20T07:34:46;100140.45;;;5.53;76.69
84043;BME280;74129;52.540;13.416;2023-12-20T07:37:12;100137.21;;;5.55;76.34
84043;BME280;74129;52.540;13.416;2023-12-20T07:39:40;100129.13;;;5.53;76.39
84043;BME280;74129;52.540;13.416;2023-12-20T07:42:07;100129.69;;;5.52;76.40
84043;BME280;74129;52.540;13.416;2023-12-20T07:44:34;100128.97;;;5.53;76.75
84043;BME280;74129;52.540;13.416;2023-12-20T07:47:02;100133.48;;;5.52;76.40
84043;BME280;74129;52.540;13.416;2023-12-20T07:49:28;100127.66;;;5.52;76.62
84043;BME280;74129;52.540;13.416;2023-12-20T07:51:54;100125.73;;;5.52;76.55
84043;BME280;74129;52.540;13.416;2023-12-20T07:54:21;100130.41;;;5.53;76.54
84043;BME280;74129;52.540;13.416;2023-12-20T07:56:48;100124.73;;;5.54;76.38
84043;BME280;74129;52.540;13.416;2023-12-20T07:59:15;100124.30;;;5.54;76.54
84043;BME280;74129;52.540;13.416;2023-12-20T08:01:41;100129.61;;;5.56;76.37
84043;BME280;74129;52.540;13.416;2023-12-20T08:04:08;100128.08;;;5.57;76.32
84043;BME280;74129;52.540;13.416;2023-12-20T08:06:35;100131.65;;;5.57;76.12
84043;BME280;74129;52.540;13.416;2023-12-20T08:09:01;100133.43;;;5.58;76.23
84043;BME280;74129;52.540;13.416;2023-12-20T08:11:28;100135.60;;;5.59;75.96
84043;BME280;74129;52.540;13.416;2023-12-20T08:13:55;100137.10;;;5.59;75.93
84043;BME280;74129;52.540;13.416;2023-12-20T08:16:21;100137.39;;;5.60;76.01
84043;BME280;74129;52.540;13.416;2023-12-20T08:18:48;100131.91;;;5.61;75.78
84043;BME280;74129;52.540;13.416;2023-12-20T08:21:14;100130.15;;;5.61;76.05
84043;BME280;74129;52.540;13.416;2023-12-20T08:23:40;100143.15;;;5.63;75.88
84043;BME280;74129;52.540;13.416;2023-12-20T08:26:07;100138.82;;;5.62;75.78
84043;BME280;74129;52.540;13.416;2023-12-20T08:28:34;100140.13;;;5.63;75.79
84043;BME280;74129;52.540;13.416;2023-12-20T08:31:00;100141.73;;;5.63;75.71
84043;BME280;74129;52.540;13.416;2023-12-20T08:33:27;100137.52;;;5.64;75.72
84043;BME280;74129;52.540;13.416;2023-12-20T08:35:53;100133.26;;;5.64;75.78
84043;BME280;74129;52.540;13.416;2023-12-20T08:38:20;100135.09;;;5.64;75.49
84043;BME280;74129;52.540;13.416;2023-12-20T08:40:46;100133.67;;;5.66;75.58
84043;BME280;74129;52.540;13.416;2023-12-20T08:43:13;100129.03;;;5.68;75.66
84043;BME280;74129;52.540;13.416;2023-12-20T08:45:39;100130.41;;;5.73;75.57
84043;BME280;74129;52.540;13.416;2023-12-20T08:48:06;100127.27;;;5.79;75.26
84043;BME280;74129;52.540;13.416;2023-12-20T08:50:33;100117.68;;;5.82;75.39
84043;BME280;74129;52.540;13.416;2023-12-20T08:53:00;100112.50;;;5.86;75.53
84043;BME280;74129;52.540;13.416;2023-12-20T08:55:26;100112.88;;;5.90;75.45
84043;BME280;74129;52.540;13.416;2023-12-20T08:57:54;100110.97;;;5.93;75.05
84043;BME280;74129;52.540;13.416;2023-12-20T09:00:21;100100.95;;;5.96;75.03
84043;BME280;74129;52.540;13.416;2023-12-20T09:02:50;100100.05;;;5.99;74.93
84043;BME280;74129;52.540;13.416;2023-12-20T09:05:17;100104.55;;;5.99;74.69
84043;BME280;74129;52.540;13.416;2023-12-20T09:07:43;100102.68;;;6.01;74.83
84043;BME280;74129;52.540;13.416;2023-12-20T09:10:10;100105.89;;;6.07;75.06
84043;BME280;74129;52.540;13.416;2023-12-20T09:12:36;100107.14;;;6.16;74.57
84043;BME280;74129;52.540;13.416;2023-12-20T09:15:06;100104.48;;;6.23;74.94
84043;BME280;74129;52.540;13.416;2023-12-20T09:17:32;100110.45;;;6.34;75.50
84043;BME280;74129;52.540;13.416;2023-12-20T09:19:59;100112.23;;;6.43;74.19
84043;BME280;74129;52.540;13.416;2023-12-20T09:22:26;100111.16;;;6.43;73.84
84043;BME280;74129;52.540;13.416;2023-12-20T09:24:52;100097.14;;;6.41;73.79
84043;BME280;74129;52.540;13.416;2023-12-20T09:27:18;100096.63;;;6.40;73.73
84043;BME280;74129;52.540;13.416;2023-12-20T09:29:45;100099.10;;;6.38;73.71
84043;BME280;74129;52.540;13.416;2023-12-20T09:32:11;100100.73;;;6.39;73.80
84043;BME280;74129;52.540;13.416;2023-12-20T09:34:38;100100.15;;;6.39;73.45
84043;BME280;74129;52.540;13.416;2023-12-20T09:37:04;100097.33;;;6.38;73.75
84043;BME280;74129;52.540;13.416;2023-12-20T09:39:31;100091.09;;;6.38;73.79
84043;BME280;74129;52.540;13.416;2023-12-20T09:42:03;100091.54;;;6.36;73.88
84043;BME280;74129;52.540;13.416;2023-12-20T09:44:30;100101.85;;;6.36;73.91
84043;BME280;74129;52.540;13.416;2023-12-20T09:46:57;100097.80;;;6.36;73.63
84043;BME280;74129;52.540;13.416;2023-12-20T09:49:25;100093.50;;;6.35;73.76
84043;BME280;74129;52.540;13.416;2023-12-20T09:51:54;100098.99;;;6.35;73.83
84043;BME280;74129;52.540;13.416;2023-12-20T09:54:21;100085.85;;;6.35;73.86
84043;BME280;74129;52.540;13.416;2023-12-20T09:56:48;100089.95;;;6.37;73.44
84043;BME280;74129;52.540;13.416;2023-12-20T09:59:15;100088.45;;;6.37;73.37
84043;BME280;74129;52.540;13.416;2023-12-20T10:01:42;100085.92;;;6.37;73.21
84043;BME280;74129;52.540;13.416;2023-12-20T10:04:10;100077.65;;;6.36;73.18
84043;BME280;74129;52.540;13.416;2023-12-20T10:06:40;100076.96;;;6.37;73.14
84043;BME280;74129;52.540;13.416;2023-12-20T10:09:06;100071.75;;;6.38;73.05
84043;BME280;74129;52.540;13.416;2023-12-20T10:11:35;100060.19;;;6.37;72.91
84043;BME280;74129;52.540;13.416;2023-12-20T10:14:01;100052.20;;;6.38;73.48
84043;BME280;74129;52.540;13.416;2023-12-20T10:16:28;100048.95;;;6.39;72.91
84043;BME280;74129;52.540;13.416;2023-12-20T10:18:56;100048.50;;;6.40;73.02
84043;BME280;74129;52.540;13.416;2023-12-20T10:21:23;100048.96;;;6.42;72.55
84043;BME280;74129;52.540;13.416;2023-12-20T10:23:50;100043.36;;;6.43;72.53
84043;BME280;74129;52.540;13.416;2023-12-20T10:26:20;100042.97;;;6.42;72.05
84043;BME280;74129;52.540;13.416;2023-12-20T10:28:53;100040.73;;;6.42;72.27
84043;BME280;74129;52.540;13.416;2023-12-20T10:31:46;100031.64;;;6.42;72.03
84043;BME280;74129;52.540;13.416;2023-12-20T10:34:12;100031.91;;;6.42;71.80
84043;BME280;74129;52.540;13.416;2023-12-20T10:36:39;100025.50;;;6.42;71.86
84043;BME280;74129;52.540;13.416;2023-12-20T10:39:07;100027.73;;;6.41;71.73
84043;BME280;74129;52.540;13.416;2023-12-20T10:41:35;100018.95;;;6.43;71.95
84043;BME280;74129;52.540;13.416;2023-12-20T10:44:15;100004.44;;;6.44;72.15
84043;BME280;74129;52.540;13.416;2023-12-20T10:47:05;99989.44;;;6.49;72.36
84043;BME280;74129;52.540;13.416;2023-12-20T10:49:59;99996.20;;;6.54;71.82
84043;BME280;74129;52.540;13.416;2023-12-20T10:52:29;99993.49;;;6.55;71.90
84043;BME280;74129;52.540;13.416;2023-12-20T10:55:02;99985.55;;;6.56;71.88
84043;BME280;74129;52.540;13.416;2023-12-20T10:57:32;99980.42;;;6.53;71.57
84043;BME280;74129;52.540;13.416;2023-12-20T11:00:02;99991.30;;;6.52;71.55
84043;BME280;74129;52.540;13.416;2023-12-20T11:02:36;99978.25;;;6.51;71.50
84043;BME280;74129;52.540;13.416;2023-12-20T11:08:21;99973.05;;;6.50;71.18
84043;BME280;74129;52.540;13.416;2023-12-20T11:11:25;99952.77;;;6.51;71.44
84043;BME280;74129;52.540;13.416;2023-12-20T11:14:02;99954.50;;;6.53;71.67
84043;BME280;74129;52.540;13.416;2023-12-20T11:16:37;99954.86;;;6.55;71.38
84043;BME280;74129;52.540;13.416;2023-12-20T11:19:04;99957.98;;;6.57;71.33
84043;BME280;74129;52.540;13.416;2023-12-20T11:21:32;99945.30;;;6.55;71.70
84043;BME280;74129;52.540;13.416;2023-12-20T11:24:03;99948.47;;;6.53;71.72
84043;BME280;74129;52.540;13.416;2023-12-20T11:26:56;99932.02;;;6.53;71.85
84043;BME280;74129;52.540;13.416;2023-12-20T11:29:36;99927.23;;;6.51;71.88
84043;BME280;74129;52.540;13.416;2023-12-20T11:35:16;99917.38;;;6.50;72.39
84043;BME280;74129;52.540;13.416;2023-12-20T11:37:51;99911.40;;;6.47;72.34
84043;BME280;74129;52.540;13.416;2023-12-20T11:40:23;99913.93;;;6.48;72.59
84043;BME280;74129;52.540;13.416;2023-12-20T11:42:50;99907.02;;;6.47;72.79
84043;BME280;74129;52.540;13.416;2023-12-20T11:45:24;99896.98;;;6.50;72.69
84043;BME280;74129;52.540;13.416;2023-12-20T11:47:51;99889.35;;;6.52;72.49
84043;BME280;74129;52.540;13.416;2023-12-20T11:50:20;99891.55;;;6.56;72.49
84043;BME280;74129;52.540;13.416;2023-12-20T11:52:48;99888.85;;;6.58;72.18
84043;BME280;74129;52.540;13.416;2023-12-20T11:55:15;99878.20;;;6.61;72.70
84043;BME280;74129;52.540;13.416;2023-12-20T11:57:46;99871.52;;;6.61;72.67
84043;BME280;74129;52.540;13.416;2023-12-20T12:00:13;99867.70;;;6.62;72.56
84043;BME280;74129;52.540;13.416;2023-12-20T12:02:40;99865.80;;;6.65;72.45
84043;BME280;74129;52.540;13.416;2023-12-20T12:05:07;99868.71;;;6.67;72.20
84043;BME280;74129;52.540;13.416;2023-12-20T12:07:34;99848.27;;;6.67;72.04
84043;BME280;74129;52.540;13.416;2023-12-20T12:10:01;99835.67;;;6.69;72.25
84043;BME280;74129;52.540;13.416;2023-12-20T12:12:29;99831.35;;;6.71;72.16
84043;BME280;74129;52.540;13.416;2023-12-20T12:15:18;99823.98;;;6.71;72.14
84043;BME280;74129;52.540;13.416;2023-12-20T12:17:55;99820.88;;;6.71;72.15
84043;BME280;74129;52.540;13.416;2023-12-20T12:20:23;99814.64;;;6.68;72.04
84043;BME280;74129;52.540;13.416;2023-12-20T12:23:04;99807.48;;;6.68;71.89
84043;BME280;74129;52.540;13.416;2023-12-20T12:25:32;99800.42;;;6.68;72.01
84043;BME280;74129;52.540;13.416;2023-12-20T12:28:01;99796.63;;;6.66;72.07
84043;BME280;74129;52.540;13.416;2023-12-20T12:30:33;99792.30;;;6.63;72.27
84043;BME280;74129;52.540;13.416;2023-12-20T12:33:00;99797.11;;;6.63;72.43
84043;BME280;74129;52.540;13.416;2023-12-20T12:35:27;99791.41;;;6.60;72.55
84043;BME280;74129;52.540;13.416;2023-12-20T12:37:53;99785.34;;;6.58;72.69
84043;BME280;74129;52.540;13.416;2023-12-20T12:40:36;99784.19;;;6.55;72.79
84043;BME280;74129;52.540;13.416;2023-12-20T12:43:05;99782.69;;;6.50;72.88
84043;BME280;74129;52.540;13.416;2023-12-20T12:45:33;99783.55;;;6.47;73.20
84043;BME280;74129;52.540;13.416;2023-12-20T12:48:08;99772.48;;;6.43;73.35
84043;BME280;74129;52.540;13.416;2023-12-20T12:50:34;99762.52;;;6.41;73.59
84043;BME280;74129;52.540;13.416;2023-12-20T12:53:02;99751.56;;;6.39;73.73
84043;BME280;74129;52.540;13.416;2023-12-20T12:55:29;99755.91;;;6.37;73.82
84043;BME280;74129;52.540;13.416;2023-12-20T12:57:58;99758.63;;;6.36;73.96
84043;BME280;74129;52.540;13.416;2023-12-20T13:00:27;99752.84;;;6.35;73.97